Lidianopolis, Brazil
Current Conditions -  °F | °C
As of 4:00 PM on Tuesday 21 Oct 2014 (Local Time) from SBMG Reporting Station
Few Clouds Few Clouds  
Wind Chill: 84°   Ceiling: Unl
Heat Index: 84°   Visibility: 6mi
Dew Point: 57°   Wind: 9mph
Humidity: 40%   Direction: 150°SSE
Pressure: 30"   Gusts: NA
Location:  24.11°S, 51.65°W
Report Text: SBMG 211800Z 15008KT 9999 FEW049 29/14 Q1016
Loading
Personal Weather Stations






























Interactive Weather Map
Tropical Storm Tracking
New forecast layout! Learn more

10-Day Weather Forecast

Advertisements
Track Severe Weather on mobile